createdAt,value
2019-03-26T00:00:44.332Z,2.40
2019-03-26T00:03:12.435Z,2.37
2019-03-26T00:05:40.564Z,2.50
2019-03-26T00:08:09.188Z,3.23
2019-03-26T00:10:37.292Z,2.53
2019-03-26T00:13:05.479Z,2.70
2019-03-26T00:15:33.908Z,2.53
2019-03-26T00:18:02.031Z,2.20
2019-03-26T00:20:30.148Z,2.70
2019-03-26T00:22:58.274Z,2.37
2019-03-26T00:25:26.384Z,2.10
2019-03-26T00:27:54.882Z,2.47
2019-03-26T00:30:23.055Z,2.20
2019-03-26T00:32:51.537Z,2.47
2019-03-26T00:35:19.640Z,2.37
2019-03-26T00:37:47.768Z,3.03
2019-03-26T00:40:17.503Z,2.20
2019-03-26T00:42:45.638Z,2.13
2019-03-26T00:45:13.808Z,2.17
2019-03-26T00:47:41.929Z,2.60
2019-03-26T00:50:10.031Z,2.37
2019-03-26T00:52:38.152Z,2.30
2019-03-26T00:55:06.636Z,2.27
2019-03-26T00:57:34.764Z,2.97
2019-03-26T01:00:04.566Z,2.57
2019-03-26T01:02:32.723Z,2.23
2019-03-26T01:05:00.996Z,2.60
2019-03-26T01:07:29.200Z,3.47
2019-03-26T01:09:57.464Z,2.83
2019-03-26T01:12:25.636Z,2.93
2019-03-26T01:14:53.807Z,2.70
2019-03-26T01:17:22.254Z,2.40
2019-03-26T01:19:50.408Z,2.53
2019-03-26T01:22:18.572Z,2.60
2019-03-26T01:24:46.704Z,2.60
2019-03-26T01:27:14.855Z,2.47
2019-03-26T01:29:43.009Z,2.80
2019-03-26T01:32:11.119Z,2.70
2019-03-26T01:34:45.773Z,2.47
2019-03-26T01:37:09.192Z,2.50
2019-03-26T01:39:37.316Z,1.87
2019-03-26T01:42:05.505Z,2.90
2019-03-26T01:44:33.874Z,2.43
2019-03-26T01:47:02.004Z,2.43
2019-03-26T01:49:30.127Z,2.67
2019-03-26T01:51:58.380Z,3.53
2019-03-26T01:54:26.537Z,2.53
2019-03-26T01:56:54.659Z,2.40
2019-03-26T01:59:22.788Z,1.87
2019-03-26T02:01:50.972Z,2.13
2019-03-26T02:04:19.156Z,2.47
2019-03-26T02:06:47.420Z,2.00
2019-03-26T02:09:15.583Z,2.30
2019-03-26T02:11:43.779Z,2.87
2019-03-26T02:14:11.903Z,2.47
2019-03-26T02:16:40.109Z,2.20
2019-03-26T02:19:08.212Z,1.87
2019-03-26T02:21:36.335Z,2.60
2019-03-26T02:24:04.621Z,3.43
2019-03-26T02:26:32.748Z,2.27
2019-03-26T02:29:00.862Z,1.90
2019-03-26T02:31:28.993Z,2.67
2019-03-26T02:33:57.431Z,2.00
2019-03-26T02:36:25.623Z,2.37
2019-03-26T02:38:53.788Z,2.43
2019-03-26T02:41:21.920Z,2.20
2019-03-26T02:43:50.127Z,2.70
2019-03-26T02:46:18.578Z,2.60
2019-03-26T02:48:46.705Z,2.30
2019-03-26T02:51:14.808Z,2.60
2019-03-26T02:53:43.041Z,2.30
2019-03-26T02:56:11.225Z,2.50
2019-03-26T02:58:39.411Z,2.63
2019-03-26T03:01:07.527Z,2.60
2019-03-26T03:03:35.717Z,2.90
2019-03-26T03:06:04.086Z,2.60
2019-03-26T03:08:32.255Z,2.67
2019-03-26T03:11:00.452Z,2.43
2019-03-26T03:13:28.681Z,3.10
2019-03-26T03:15:56.868Z,2.83
2019-03-26T03:18:25.089Z,2.43
2019-03-26T03:20:53.327Z,2.90
2019-03-26T03:23:21.573Z,2.60
2019-03-26T03:25:49.747Z,2.53
2019-03-26T03:28:17.850Z,2.30
2019-03-26T03:30:46.404Z,2.67
2019-03-26T03:33:14.748Z,2.70
2019-03-26T03:35:52.139Z,2.83
2019-03-26T03:38:12.704Z,2.57
2019-03-26T03:40:40.827Z,2.30
2019-03-26T03:43:08.927Z,2.77
2019-03-26T03:45:37.633Z,3.50
2019-03-26T03:48:05.981Z,2.70
2019-03-26T03:50:34.172Z,2.73
2019-03-26T03:53:02.353Z,2.20
2019-03-26T03:55:30.551Z,2.60
2019-03-26T03:58:00.238Z,2.43
2019-03-26T04:00:29.950Z,2.90
2019-03-26T04:02:58.065Z,2.63
2019-03-26T04:05:26.190Z,2.93
2019-03-26T04:07:54.599Z,3.83
2019-03-26T04:10:22.734Z,2.80
2019-03-26T04:12:50.850Z,3.03
2019-03-26T04:15:18.974Z,2.40
2019-03-26T04:17:47.116Z,3.10
2019-03-26T04:20:15.290Z,2.53
2019-03-26T04:22:43.484Z,2.83
2019-03-26T04:25:11.602Z,2.63
2019-03-26T04:27:39.732Z,3.20
2019-03-26T04:30:08.398Z,2.60
2019-03-26T04:32:36.522Z,2.87
2019-03-26T04:35:05.200Z,3.40
2019-03-26T04:37:33.334Z,2.40
2019-03-26T04:40:01.453Z,3.03
2019-03-26T04:42:29.598Z,3.30
2019-03-26T04:44:57.795Z,2.90
2019-03-26T04:47:25.929Z,2.40
2019-03-26T04:49:54.044Z,3.47
2019-03-26T04:52:22.528Z,2.50
2019-03-26T04:54:50.648Z,2.93
2019-03-26T04:57:18.783Z,2.73
2019-03-26T04:59:46.976Z,2.47
2019-03-26T05:02:15.078Z,2.80
2019-03-26T05:04:43.218Z,3.97
2019-03-26T05:07:11.395Z,3.40
2019-03-26T05:09:39.528Z,3.10
2019-03-26T05:12:07.645Z,3.27
2019-03-26T05:14:35.772Z,2.87
2019-03-26T05:17:03.973Z,2.00
2019-03-26T05:19:32.104Z,2.60
2019-03-26T05:22:00.227Z,2.30
2019-03-26T05:24:28.357Z,2.97
2019-03-26T05:26:56.567Z,3.83
2019-03-26T05:29:24.712Z,2.77
2019-03-26T05:31:52.816Z,2.90
2019-03-26T05:34:20.952Z,3.10
2019-03-26T05:36:51.563Z,3.53
2019-03-26T05:39:19.906Z,4.43
2019-03-26T05:41:48.016Z,3.73
2019-03-26T05:44:16.160Z,3.03
2019-03-26T05:46:44.309Z,3.40
2019-03-26T05:49:12.420Z,3.47
2019-03-26T05:51:40.551Z,4.20
2019-03-26T05:54:08.704Z,3.60
2019-03-26T05:56:36.860Z,3.67
2019-03-26T05:59:04.964Z,4.13
2019-03-26T06:01:33.101Z,3.43
2019-03-26T06:04:01.223Z,3.30
2019-03-26T06:06:29.424Z,3.90
2019-03-26T06:08:57.709Z,3.57
2019-03-26T06:11:25.845Z,3.57
2019-03-26T06:13:53.952Z,4.07
2019-03-26T06:16:22.086Z,4.10
2019-03-26T06:18:50.197Z,3.73
2019-03-26T06:21:18.330Z,3.33
2019-03-26T06:23:46.439Z,3.57
2019-03-26T06:26:14.569Z,4.30
2019-03-26T06:28:42.679Z,3.50
2019-03-26T06:31:10.796Z,3.87
2019-03-26T06:33:38.924Z,4.27
2019-03-26T06:36:07.040Z,3.23
2019-03-26T06:38:35.165Z,3.97
2019-03-26T06:41:03.371Z,4.10
2019-03-26T06:43:31.495Z,3.47
2019-03-26T06:45:59.607Z,4.23
2019-03-26T06:48:27.750Z,3.37
2019-03-26T06:50:55.869Z,3.20
2019-03-26T06:53:24.001Z,4.13
2019-03-26T06:55:52.104Z,3.10
2019-03-26T06:58:20.232Z,2.83
2019-03-26T07:00:48.627Z,2.73
2019-03-26T07:03:16.807Z,2.57
2019-03-26T07:05:45.264Z,2.70
2019-03-26T07:08:13.377Z,2.53
2019-03-26T07:10:41.524Z,2.60
2019-03-26T07:13:09.638Z,2.10
2019-03-26T07:15:37.833Z,2.20
2019-03-26T07:18:06.012Z,2.20
2019-03-26T07:20:34.149Z,2.80
2019-03-26T07:23:02.296Z,2.40
2019-03-26T07:25:30.500Z,2.53
2019-03-26T07:27:58.603Z,2.03
2019-03-26T07:30:40.247Z,2.43
2019-03-26T07:33:08.633Z,2.17
2019-03-26T07:35:36.764Z,2.43
2019-03-26T07:38:05.049Z,1.80
2019-03-26T07:40:33.256Z,2.13
2019-03-26T07:43:01.369Z,2.43
2019-03-26T07:45:29.492Z,2.20
2019-03-26T07:47:57.618Z,2.83
2019-03-26T07:50:25.743Z,2.53
2019-03-26T07:52:53.912Z,1.77
2019-03-26T07:55:22.044Z,2.30
2019-03-26T07:57:50.143Z,2.73
2019-03-26T08:00:19.828Z,1.97
2019-03-26T08:02:48.284Z,2.37
2019-03-26T08:05:29.046Z,2.53
2019-03-26T08:07:57.786Z,2.13
2019-03-26T08:10:16.157Z,3.17
2019-03-26T08:12:44.291Z,2.43
2019-03-26T08:15:12.462Z,2.40
2019-03-26T08:17:40.597Z,2.30
2019-03-26T08:20:08.981Z,2.40
2019-03-26T08:22:37.458Z,2.20
2019-03-26T08:25:06.436Z,2.87
2019-03-26T08:27:34.826Z,2.30
2019-03-26T08:30:03.009Z,2.40
2019-03-26T08:32:31.123Z,1.93
2019-03-26T08:34:59.232Z,2.03
2019-03-26T08:37:27.368Z,1.97
2019-03-26T08:39:55.557Z,1.80
2019-03-26T08:42:23.690Z,1.80
2019-03-26T08:44:51.796Z,1.60
2019-03-26T08:47:20.032Z,1.90
2019-03-26T08:49:48.500Z,2.03
2019-03-26T08:52:16.610Z,2.00
2019-03-26T08:54:44.729Z,1.70
2019-03-26T08:57:13.102Z,1.60
2019-03-26T08:59:41.233Z,2.13
2019-03-26T09:02:09.348Z,1.87
2019-03-26T09:04:37.476Z,1.93
2019-03-26T09:07:05.577Z,2.30
2019-03-26T09:09:33.706Z,2.00
2019-03-26T09:12:01.814Z,2.13
2019-03-26T09:14:29.927Z,2.43
2019-03-26T09:16:58.032Z,2.40
2019-03-26T09:19:26.187Z,1.80
2019-03-26T09:21:54.361Z,2.40
2019-03-26T09:24:22.531Z,2.40
2019-03-26T09:26:50.640Z,2.60
2019-03-26T09:29:18.772Z,2.90
2019-03-26T09:31:46.988Z,2.27
2019-03-26T09:34:15.112Z,2.40
2019-03-26T09:36:43.392Z,2.30
2019-03-26T09:39:11.509Z,2.70
2019-03-26T09:41:39.632Z,2.07
2019-03-26T09:44:07.745Z,2.13
2019-03-26T09:46:35.873Z,2.40
2019-03-26T09:49:03.975Z,2.80
2019-03-26T09:51:32.116Z,2.17
2019-03-26T09:54:00.232Z,2.47
2019-03-26T09:56:31.981Z,2.77
2019-03-26T09:58:58.259Z,1.93
2019-03-26T10:01:26.392Z,2.43
2019-03-26T10:03:54.499Z,1.83
2019-03-26T10:06:23.783Z,2.47
2019-03-26T10:08:52.984Z,2.27
2019-03-26T10:11:21.309Z,2.03
2019-03-26T10:13:49.417Z,1.63
2019-03-26T10:16:17.558Z,2.10
2019-03-26T10:18:45.655Z,2.10
2019-03-26T10:21:13.796Z,1.60
2019-03-26T10:23:41.892Z,1.53
2019-03-26T10:26:10.059Z,2.03
2019-03-26T10:28:38.255Z,1.83
2019-03-26T10:31:06.385Z,2.00
2019-03-26T10:33:34.581Z,1.70
2019-03-26T10:36:02.689Z,2.30
2019-03-26T10:38:30.825Z,1.80
2019-03-26T10:40:58.988Z,2.50
2019-03-26T10:43:27.117Z,2.47
2019-03-26T10:45:55.311Z,2.47
2019-03-26T10:48:23.464Z,2.70
2019-03-26T10:50:51.641Z,3.03
2019-03-26T10:53:19.845Z,3.00
2019-03-26T10:55:47.941Z,2.50
2019-03-26T10:58:16.073Z,2.10
2019-03-26T11:00:44.253Z,5.13
2019-03-26T11:03:12.375Z,3.60
2019-03-26T11:05:40.479Z,2.50
2019-03-26T11:08:08.604Z,1.90
2019-03-26T11:10:37.137Z,2.50
2019-03-26T11:13:05.272Z,2.23
2019-03-26T11:15:33.788Z,1.70
2019-03-26T11:18:01.975Z,1.50
2019-03-26T11:20:30.168Z,1.70
2019-03-26T11:22:58.722Z,2.00
2019-03-26T11:25:26.955Z,2.03
2019-03-26T11:27:55.293Z,2.20
2019-03-26T11:30:23.438Z,1.70
2019-03-26T11:32:51.761Z,1.93
2019-03-26T11:35:20.047Z,1.80
2019-03-26T11:37:48.300Z,1.90
2019-03-26T11:40:16.596Z,1.83
2019-03-26T11:42:44.872Z,2.13
2019-03-26T11:45:14.193Z,1.87
2019-03-26T11:47:42.369Z,2.00
2019-03-26T11:50:10.972Z,1.80
2019-03-26T11:52:39.748Z,1.80
2019-03-26T11:55:08.901Z,2.70
2019-03-26T11:57:37.072Z,2.30
2019-03-26T12:00:06.810Z,2.17
2019-03-26T12:02:35.044Z,2.17
2019-03-26T12:05:04.316Z,2.20
2019-03-26T12:07:32.496Z,2.20
2019-03-26T12:10:00.599Z,2.33
2019-03-26T12:12:28.729Z,2.50
2019-03-26T12:14:56.835Z,2.20
2019-03-26T12:17:24.974Z,2.20
2019-03-26T12:19:53.078Z,2.00
2019-03-26T12:22:21.207Z,2.80
2019-03-26T12:24:49.322Z,1.93
2019-03-26T12:27:17.467Z,2.20
2019-03-26T12:29:45.568Z,2.00
2019-03-26T12:32:13.777Z,3.10
2019-03-26T12:34:41.890Z,2.13
2019-03-26T12:37:10.033Z,2.10
2019-03-26T12:39:38.220Z,1.73
2019-03-26T12:42:06.350Z,2.17
2019-03-26T12:44:34.465Z,2.37
2019-03-26T12:47:02.588Z,2.43
2019-03-26T12:49:30.705Z,2.37
2019-03-26T12:51:58.849Z,2.10
2019-03-26T12:54:27.032Z,2.43
2019-03-26T12:56:55.613Z,2.53
2019-03-26T12:59:26.549Z,2.70
2019-03-26T13:01:53.740Z,2.00
2019-03-26T13:04:21.857Z,2.27
2019-03-26T13:06:49.972Z,2.10
2019-03-26T13:09:18.100Z,2.20
2019-03-26T13:11:46.593Z,2.47
2019-03-26T13:14:14.715Z,2.20
2019-03-26T13:16:42.832Z,1.77
2019-03-26T13:19:10.969Z,2.20
2019-03-26T13:21:39.080Z,2.30
2019-03-26T13:24:07.221Z,2.83
2019-03-26T13:26:35.389Z,2.30
2019-03-26T13:29:03.899Z,2.10
2019-03-26T13:31:32.069Z,2.10
2019-03-26T13:34:00.555Z,2.10
2019-03-26T13:36:28.664Z,1.93
2019-03-26T13:38:56.787Z,2.30
2019-03-26T13:41:24.905Z,2.40
2019-03-26T13:43:53.046Z,2.87
2019-03-26T13:46:21.225Z,3.10
2019-03-26T13:48:49.329Z,3.37
2019-03-26T13:51:17.469Z,3.70
2019-03-26T13:53:45.573Z,2.73
2019-03-26T13:56:13.705Z,2.90
2019-03-26T13:58:41.803Z,3.03
2019-03-26T14:01:09.937Z,2.67
2019-03-26T14:03:38.042Z,2.90
2019-03-26T14:06:06.172Z,2.83
2019-03-26T14:08:34.274Z,2.87
2019-03-26T14:11:02.474Z,2.57
2019-03-26T14:13:30.576Z,2.17
2019-03-26T14:15:58.706Z,2.20
2019-03-26T14:18:26.820Z,2.30
2019-03-26T14:20:54.940Z,2.27
2019-03-26T14:23:23.048Z,2.40
2019-03-26T14:25:51.273Z,2.30
2019-03-26T14:28:19.458Z,2.53
2019-03-26T14:30:48.046Z,2.57
2019-03-26T14:33:16.636Z,2.60
2019-03-26T14:35:44.788Z,2.57
2019-03-26T14:38:12.926Z,2.80
2019-03-26T14:40:53.552Z,2.33
2019-03-26T14:43:10.955Z,2.70
2019-03-26T14:45:42.241Z,2.60
2019-03-26T14:48:09.208Z,7.13
2019-03-26T14:50:37.319Z,3.27
2019-03-26T14:53:05.445Z,2.53
2019-03-26T14:55:33.567Z,2.87
2019-03-26T14:58:01.688Z,3.53
2019-03-26T15:00:29.879Z,3.50
2019-03-26T15:02:57.999Z,2.80
2019-03-26T15:05:26.244Z,3.27
2019-03-26T15:07:54.369Z,3.83
2019-03-26T15:10:23.523Z,2.90
2019-03-26T15:12:51.910Z,2.40
2019-03-26T15:15:20.011Z,3.50
2019-03-26T15:17:48.128Z,3.57
2019-03-26T15:20:16.432Z,3.00
2019-03-26T15:22:44.536Z,2.30
2019-03-26T15:25:12.739Z,2.20
2019-03-26T15:27:40.916Z,2.40
2019-03-26T15:30:09.217Z,2.40
2019-03-26T15:32:37.323Z,2.33
2019-03-26T15:35:06.037Z,2.53
2019-03-26T15:37:34.284Z,3.47
2019-03-26T15:40:02.488Z,2.20
2019-03-26T15:42:30.593Z,2.30
2019-03-26T15:44:58.719Z,2.53
2019-03-26T15:47:27.080Z,3.07
2019-03-26T15:49:55.212Z,2.40
2019-03-26T15:52:23.313Z,2.73
2019-03-26T15:54:51.452Z,2.70
2019-03-26T15:57:19.552Z,2.57
2019-03-26T15:59:47.776Z,2.63
2019-03-26T16:02:15.907Z,2.87
2019-03-26T16:04:44.016Z,2.53
2019-03-26T16:07:12.144Z,2.60
2019-03-26T16:09:40.243Z,2.30
2019-03-26T16:12:08.369Z,2.33
2019-03-26T16:14:36.872Z,3.57
2019-03-26T16:17:05.083Z,3.13
2019-03-26T16:19:36.404Z,3.27
2019-03-26T16:22:03.120Z,3.00
2019-03-26T16:24:31.224Z,3.57
2019-03-26T16:26:59.351Z,3.50
2019-03-26T16:29:27.456Z,2.83
2019-03-26T16:31:55.592Z,2.60
2019-03-26T16:34:23.696Z,2.90
2019-03-26T16:36:59.261Z,3.20
2019-03-26T16:39:22.096Z,3.53
2019-03-26T16:41:50.286Z,2.07
2019-03-26T16:44:18.760Z,2.63
2019-03-26T16:46:46.957Z,2.67
2019-03-26T16:49:15.067Z,2.30
2019-03-26T16:51:43.239Z,2.53
2019-03-26T16:54:11.372Z,2.70
2019-03-26T16:56:39.504Z,2.60
2019-03-26T16:59:07.638Z,2.60
2019-03-26T17:01:35.746Z,2.50
2019-03-26T17:04:03.940Z,2.33
2019-03-26T17:06:32.048Z,3.97
2019-03-26T17:09:00.195Z,2.63
2019-03-26T17:11:28.380Z,3.20
2019-03-26T17:13:56.507Z,2.80
2019-03-26T17:16:24.617Z,3.60
2019-03-26T17:18:52.769Z,3.23
2019-03-26T17:21:20.881Z,3.40
2019-03-26T17:23:49.008Z,2.63
2019-03-26T17:26:17.356Z,2.73
2019-03-26T17:28:45.514Z,3.00
2019-03-26T17:31:14.107Z,3.53
2019-03-26T17:33:42.316Z,3.00
2019-03-26T17:36:10.444Z,3.03
2019-03-26T17:38:38.722Z,3.70
2019-03-26T17:41:06.931Z,3.10
2019-03-26T17:43:35.037Z,3.13
2019-03-26T17:46:03.164Z,4.03
2019-03-26T17:48:31.273Z,3.33
2019-03-26T17:50:59.721Z,3.77
2019-03-26T17:53:27.848Z,4.00
2019-03-26T17:55:55.968Z,3.30
2019-03-26T17:58:24.240Z,3.33
2019-03-26T18:00:52.374Z,3.50
2019-03-26T18:03:26.130Z,3.40
2019-03-26T18:05:50.411Z,3.50
2019-03-26T18:08:18.672Z,4.83
2019-03-26T18:10:46.847Z,3.80
2019-03-26T18:13:21.072Z,3.57
2019-03-26T18:15:49.284Z,3.40
2019-03-26T18:18:17.396Z,4.10
2019-03-26T18:20:45.585Z,3.80
2019-03-26T18:23:13.712Z,3.80
2019-03-26T18:25:41.829Z,3.80
2019-03-26T18:28:09.961Z,4.07
2019-03-26T18:30:38.141Z,4.03
2019-03-26T18:33:06.259Z,3.70
2019-03-26T18:35:34.391Z,3.60
2019-03-26T18:38:02.508Z,4.13
2019-03-26T18:40:30.619Z,4.00
2019-03-26T18:42:58.739Z,3.50
2019-03-26T18:45:26.848Z,4.10
2019-03-26T18:47:55.052Z,5.07
2019-03-26T18:50:23.228Z,4.93
2019-03-26T18:52:51.361Z,4.70
2019-03-26T18:55:19.549Z,5.10
2019-03-26T18:57:47.680Z,4.67
2019-03-26T19:00:17.391Z,4.77
2019-03-26T19:02:45.524Z,4.87
2019-03-26T19:05:13.909Z,5.33
2019-03-26T19:07:42.126Z,5.47
2019-03-26T19:10:11.888Z,6.07
2019-03-26T19:12:40.024Z,5.90
2019-03-26T19:15:08.396Z,5.87
2019-03-26T19:17:36.562Z,6.10
2019-03-26T19:20:05.685Z,5.60
2019-03-26T19:22:33.796Z,5.40
2019-03-26T19:25:01.934Z,5.37
2019-03-26T19:27:30.038Z,5.10
2019-03-26T19:29:58.478Z,4.93
2019-03-26T19:32:26.680Z,4.97
2019-03-26T19:34:55.124Z,5.60
2019-03-26T19:37:23.287Z,5.57
2019-03-26T19:39:51.502Z,4.90
2019-03-26T19:42:19.618Z,4.97
2019-03-26T19:44:47.735Z,5.57
2019-03-26T19:47:15.876Z,4.80
2019-03-26T19:49:43.998Z,5.30
2019-03-26T19:52:12.139Z,5.37
2019-03-26T19:54:40.282Z,5.23
2019-03-26T19:57:08.476Z,4.93
2019-03-26T19:59:36.649Z,5.27
2019-03-26T20:02:04.865Z,5.60
2019-03-26T20:04:33.077Z,5.40
2019-03-26T20:07:01.272Z,5.20
2019-03-26T20:09:29.483Z,5.43
2019-03-26T20:11:57.710Z,4.80
2019-03-26T20:14:25.825Z,5.53
2019-03-26T20:16:53.996Z,5.10
2019-03-26T20:19:22.193Z,5.13
2019-03-26T20:21:50.422Z,5.50
2019-03-26T20:24:18.769Z,5.33
2019-03-26T20:26:47.112Z,5.23
2019-03-26T20:29:15.261Z,6.43
2019-03-26T20:31:43.540Z,6.00
2019-03-26T20:34:11.657Z,5.50
2019-03-26T20:36:39.887Z,5.77
2019-03-26T20:39:08.703Z,5.47
2019-03-26T20:41:37.005Z,5.47
2019-03-26T20:44:05.207Z,6.03
2019-03-26T20:46:33.363Z,6.90
2019-03-26T20:49:01.566Z,5.83
2019-03-26T20:51:29.941Z,7.00
2019-03-26T20:53:58.200Z,6.63
2019-03-26T20:56:26.548Z,6.23
2019-03-26T20:58:55.164Z,6.77
2019-03-26T21:01:23.413Z,6.10
2019-03-26T21:03:51.655Z,6.53
2019-03-26T21:06:19.924Z,7.40
2019-03-26T21:08:48.060Z,6.47
2019-03-26T21:11:16.246Z,6.90
2019-03-26T21:13:50.701Z,6.80
2019-03-26T21:16:14.303Z,7.93
2019-03-26T21:18:42.443Z,7.07
2019-03-26T21:21:10.548Z,6.83
2019-03-26T21:23:38.675Z,6.30
2019-03-26T21:26:06.796Z,6.43
2019-03-26T21:28:34.928Z,8.50
2019-03-26T21:31:03.055Z,8.57
2019-03-26T21:33:31.497Z,8.17
2019-03-26T21:35:59.760Z,8.20
2019-03-26T21:38:27.910Z,8.47
2019-03-26T21:40:56.077Z,8.50
2019-03-26T21:43:24.212Z,7.60
2019-03-26T21:45:52.316Z,7.60
2019-03-26T21:48:20.454Z,7.87
2019-03-26T21:50:48.564Z,8.00
2019-03-26T21:53:16.676Z,7.93
2019-03-26T21:55:44.867Z,7.77
2019-03-26T21:58:12.998Z,8.10
2019-03-26T22:00:44.303Z,8.63
2019-03-26T22:03:11.359Z,7.97
2019-03-26T22:05:42.496Z,8.10
2019-03-26T22:08:10.628Z,8.27
2019-03-26T22:10:38.751Z,8.73
2019-03-26T22:13:06.866Z,8.67
2019-03-26T22:15:35.005Z,7.90
2019-03-26T22:18:03.186Z,7.67
2019-03-26T22:20:31.328Z,8.40
2019-03-26T22:22:59.523Z,8.10
2019-03-26T22:25:27.861Z,8.70
2019-03-26T22:27:55.976Z,7.87
2019-03-26T22:30:24.113Z,8.17
2019-03-26T22:32:52.516Z,8.03
2019-03-26T22:35:20.662Z,8.07
2019-03-26T22:37:48.776Z,8.03
2019-03-26T22:40:16.881Z,7.90
2019-03-26T22:42:45.050Z,7.83
2019-03-26T22:45:13.330Z,7.53
2019-03-26T22:47:41.761Z,7.10
2019-03-26T22:50:10.140Z,7.10
2019-03-26T22:52:38.453Z,7.47
2019-03-26T22:55:10.000Z,7.60
2019-03-26T22:57:38.201Z,7.27
2019-03-26T23:00:07.850Z,7.60
2019-03-26T23:02:35.987Z,7.37
2019-03-26T23:05:05.317Z,6.27
2019-03-26T23:07:33.450Z,6.40
2019-03-26T23:10:01.588Z,6.80
2019-03-26T23:12:29.788Z,6.53
2019-03-26T23:14:57.896Z,7.00
2019-03-26T23:17:26.100Z,6.50
2019-03-26T23:19:54.220Z,7.00
2019-03-26T23:22:22.340Z,6.33
2019-03-26T23:24:50.462Z,7.07
2019-03-26T23:27:18.577Z,7.17
2019-03-26T23:29:46.699Z,6.83
2019-03-26T23:32:14.807Z,6.73
2019-03-26T23:34:42.946Z,6.57
2019-03-26T23:37:11.136Z,7.60
2019-03-26T23:39:39.391Z,7.20
2019-03-26T23:42:07.500Z,7.53
2019-03-26T23:44:35.628Z,7.13
2019-03-26T23:47:04.139Z,7.33
2019-03-26T23:49:32.621Z,6.87
2019-03-26T23:52:00.724Z,7.23
2019-03-26T23:54:28.861Z,7.73
2019-03-26T23:56:56.972Z,7.73
2019-03-26T23:59:25.172Z,7.70
